createdAt,value
2022-10-19T00:00:29.022Z,3.65
2022-10-19T00:01:31.054Z,3.03
2022-10-19T00:02:37.237Z,5.15
2022-10-19T00:03:40.031Z,3.70
2022-10-19T00:04:43.076Z,3.47
2022-10-19T00:05:45.152Z,4.63
2022-10-19T00:06:50.125Z,3.05
2022-10-19T00:07:52.188Z,3.28
2022-10-19T00:08:56.561Z,3.42
2022-10-19T00:09:58.410Z,4.30
2022-10-19T00:11:02.357Z,3.42
2022-10-19T00:12:04.236Z,3.00
2022-10-19T00:13:06.983Z,3.00
2022-10-19T00:14:14.137Z,2.88
2022-10-19T00:15:16.934Z,2.60
2022-10-19T00:16:19.456Z,3.50
2022-10-19T00:17:22.269Z,3.00
2022-10-19T00:18:25.620Z,2.75
2022-10-19T00:19:29.168Z,3.03
2022-10-19T00:20:31.478Z,2.80
2022-10-19T00:21:34.748Z,3.15
2022-10-19T00:22:36.575Z,3.08
2022-10-19T00:23:39.394Z,5.10
2022-10-19T00:24:41.226Z,2.70
2022-10-19T00:25:44.061Z,3.13
2022-10-19T00:26:46.312Z,3.35
2022-10-19T00:27:49.095Z,2.75
2022-10-19T00:28:53.512Z,2.83
2022-10-19T00:29:56.337Z,2.90
2022-10-19T00:31:03.342Z,2.63
2022-10-19T00:32:06.452Z,2.60
2022-10-19T00:33:08.399Z,3.65
2022-10-19T00:34:13.385Z,3.38
2022-10-19T00:35:15.433Z,5.57
2022-10-19T00:36:21.159Z,3.85
2022-10-19T00:37:23.126Z,3.28
2022-10-19T00:38:26.463Z,2.80
2022-10-19T00:39:28.324Z,3.13
2022-10-19T00:40:31.075Z,3.50
2022-10-19T00:41:34.857Z,3.45
2022-10-19T00:42:37.671Z,3.50
2022-10-19T00:43:55.603Z,2.75
2022-10-19T00:45:02.904Z,3.25
2022-10-19T00:46:04.928Z,2.95
2022-10-19T00:47:09.458Z,3.13
2022-10-19T00:48:17.229Z,3.58
2022-10-19T00:49:24.405Z,2.88
2022-10-19T00:50:26.289Z,2.63
2022-10-19T00:51:30.447Z,4.13
2022-10-19T00:52:32.818Z,2.65
2022-10-19T00:53:37.646Z,2.90
2022-10-19T00:54:41.941Z,4.65
2022-10-19T00:55:45.311Z,2.65
2022-10-19T00:56:49.850Z,3.35
2022-10-19T00:57:53.353Z,2.38
2022-10-19T00:58:55.974Z,2.90
2022-10-19T01:00:01.393Z,3.33
2022-10-19T01:01:05.843Z,2.55
2022-10-19T01:02:09.453Z,3.80
2022-10-19T01:03:12.885Z,3.53
2022-10-19T01:04:16.516Z,7.60
2022-10-19T01:05:19.988Z,2.95
2022-10-19T01:06:25.305Z,3.40
2022-10-19T01:07:27.817Z,4.20
2022-10-19T01:08:31.620Z,4.00
2022-10-19T01:09:33.507Z,3.88
2022-10-19T01:10:46.036Z,3.00
2022-10-19T01:11:53.998Z,2.75
2022-10-19T01:13:11.495Z,3.45
2022-10-19T01:14:24.979Z,3.13
2022-10-19T01:15:35.278Z,3.75
2022-10-19T01:16:51.879Z,3.17
2022-10-19T01:18:01.140Z,3.03
2022-10-19T01:19:25.666Z,3.13
2022-10-19T01:21:20.000Z,3.25
2022-10-19T01:22:37.423Z,2.67
2022-10-19T01:24:22.146Z,3.55
2022-10-19T01:25:29.168Z,3.30
2022-10-19T01:26:48.499Z,3.17
2022-10-19T01:28:04.162Z,2.95
2022-10-19T01:29:15.398Z,4.85
2022-10-19T01:30:30.132Z,2.97
2022-10-19T01:31:38.242Z,3.15
2022-10-19T01:33:07.331Z,3.05
2022-10-19T01:34:13.698Z,2.75
2022-10-19T01:35:26.103Z,3.67
2022-10-19T01:36:35.391Z,3.20
2022-10-19T01:37:45.938Z,3.05
2022-10-19T01:38:52.668Z,2.83
2022-10-19T01:40:02.180Z,3.15
2022-10-19T01:41:14.840Z,3.00
2022-10-19T01:42:25.196Z,3.50
2022-10-19T01:43:37.938Z,5.00
2022-10-19T01:44:44.096Z,3.40
2022-10-19T01:45:52.372Z,3.70
2022-10-19T01:46:58.700Z,3.40
2022-10-19T01:48:05.550Z,3.13
2022-10-19T01:49:15.382Z,3.33
2022-10-19T01:50:24.800Z,2.63
2022-10-19T01:51:31.605Z,2.90
2022-10-19T01:52:34.206Z,2.83
2022-10-19T01:53:44.621Z,3.40
2022-10-19T01:54:50.410Z,2.97
2022-10-19T01:55:56.451Z,3.13
2022-10-19T01:57:01.874Z,3.50
2022-10-19T01:58:09.699Z,3.10
2022-10-19T01:59:14.085Z,3.10
2022-10-19T02:00:18.219Z,2.70
2022-10-19T02:01:24.220Z,3.15
2022-10-19T02:02:28.939Z,2.60
2022-10-19T02:03:32.046Z,3.13
2022-10-19T02:04:36.707Z,3.40
2022-10-19T02:05:40.641Z,3.38
2022-10-19T02:06:44.116Z,3.50
2022-10-19T02:07:51.275Z,3.38
2022-10-19T02:08:55.594Z,3.35
2022-10-19T02:09:57.689Z,3.03
2022-10-19T02:11:02.583Z,4.28
2022-10-19T02:12:10.395Z,3.35
2022-10-19T02:13:16.021Z,3.47
2022-10-19T02:14:22.695Z,2.85
2022-10-19T02:15:27.000Z,3.30
2022-10-19T02:16:38.056Z,2.90
2022-10-19T02:17:46.275Z,3.38
2022-10-19T02:18:52.101Z,2.95
2022-10-19T02:19:54.766Z,5.15
2022-10-19T02:20:58.430Z,2.92
2022-10-19T02:22:00.628Z,4.30
2022-10-19T02:23:04.746Z,3.92
2022-10-19T02:24:06.779Z,3.40
2022-10-19T02:25:10.731Z,3.35
2022-10-19T02:26:12.829Z,4.25
2022-10-19T02:27:15.688Z,6.75
2022-10-19T02:28:18.159Z,3.40
2022-10-19T02:29:21.547Z,3.45
2022-10-19T02:30:23.600Z,3.70
2022-10-19T02:31:27.846Z,5.05
2022-10-19T02:32:31.483Z,5.70
2022-10-19T02:33:34.918Z,3.20
2022-10-19T02:34:38.628Z,4.57
2022-10-19T02:35:41.956Z,3.47
2022-10-19T02:36:44.327Z,4.28
2022-10-19T02:37:47.428Z,4.18
2022-10-19T02:38:49.626Z,6.63
2022-10-19T02:39:52.666Z,4.55
2022-10-19T02:41:02.344Z,3.90
2022-10-19T02:42:11.363Z,3.00
2022-10-19T02:43:19.210Z,3.40
2022-10-19T02:44:27.296Z,5.28
2022-10-19T02:45:31.877Z,4.50
2022-10-19T02:47:52.169Z,3.85
2022-10-19T02:48:57.796Z,5.13
2022-10-19T02:50:00.115Z,3.90
2022-10-19T02:51:03.244Z,4.30
2022-10-19T02:52:07.699Z,4.75
2022-10-19T02:53:10.508Z,3.50
2022-10-19T02:54:12.645Z,5.47
2022-10-19T02:55:15.460Z,3.85
2022-10-19T02:56:17.410Z,4.03
2022-10-19T02:57:21.937Z,3.90
2022-10-19T02:58:23.820Z,3.75
2022-10-19T02:59:27.108Z,7.25
2022-10-19T03:00:28.955Z,4.80
2022-10-19T03:01:31.832Z,3.80
2022-10-19T03:02:33.790Z,4.95
2022-10-19T03:03:37.883Z,4.18
2022-10-19T03:04:41.595Z,3.15
2022-10-19T03:05:44.459Z,3.85
2022-10-19T03:06:46.746Z,4.85
2022-10-19T03:07:49.804Z,4.15
2022-10-19T03:08:51.621Z,4.55
2022-10-19T03:09:54.609Z,4.40
2022-10-19T03:10:58.682Z,3.97
2022-10-19T03:12:01.605Z,5.35
2022-10-19T03:13:03.668Z,4.35
2022-10-19T03:14:06.544Z,4.20
2022-10-19T03:15:10.702Z,3.97
2022-10-19T03:16:14.923Z,3.55
2022-10-19T03:17:16.772Z,4.00
2022-10-19T03:18:19.700Z,4.88
2022-10-19T03:19:23.196Z,4.38
2022-10-19T03:20:26.003Z,4.85
2022-10-19T03:21:27.773Z,4.70
2022-10-19T03:22:30.543Z,4.07
2022-10-19T03:23:32.963Z,4.63
2022-10-19T03:24:35.928Z,4.43
2022-10-19T03:25:37.738Z,4.47
2022-10-19T03:26:40.546Z,4.05
2022-10-19T03:27:42.344Z,4.57
2022-10-19T03:28:45.304Z,4.38
2022-10-19T03:29:48.224Z,4.80
2022-10-19T03:30:50.136Z,4.22
2022-10-19T03:31:53.110Z,4.43
2022-10-19T03:32:55.007Z,5.10
2022-10-19T03:33:57.804Z,4.97
2022-10-19T03:35:00.989Z,4.82
2022-10-19T03:36:18.095Z,4.63
2022-10-19T03:37:39.293Z,4.57
2022-10-19T03:38:41.824Z,4.55
2022-10-19T03:39:45.049Z,5.60
2022-10-19T03:40:47.135Z,4.85
2022-10-19T03:41:50.160Z,5.68
2022-10-19T03:42:52.036Z,4.38
2022-10-19T03:43:55.043Z,4.55
2022-10-19T03:44:56.977Z,4.22
2022-10-19T03:45:59.790Z,4.93
2022-10-19T03:47:01.690Z,5.93
2022-10-19T03:48:05.107Z,5.20
2022-10-19T03:49:07.467Z,4.65
2022-10-19T03:50:14.120Z,5.10
2022-10-19T03:51:18.403Z,4.43
2022-10-19T03:52:21.514Z,4.93
2022-10-19T03:53:23.404Z,4.95
2022-10-19T03:54:27.399Z,4.72
2022-10-19T03:55:30.402Z,5.57
2022-10-19T03:56:36.077Z,5.82
2022-10-19T03:57:38.083Z,5.57
2022-10-19T03:58:41.973Z,6.00
2022-10-19T03:59:43.774Z,4.50
2022-10-19T04:00:46.534Z,5.63
2022-10-19T04:01:48.400Z,5.20
2022-10-19T04:02:51.271Z,5.15
2022-10-19T04:03:53.810Z,5.18
2022-10-19T04:04:56.636Z,5.30
2022-10-19T04:06:05.207Z,5.10
2022-10-19T04:07:08.195Z,4.95
2022-10-19T04:08:10.036Z,5.03
2022-10-19T04:09:14.382Z,4.35
2022-10-19T04:10:16.196Z,4.70
2022-10-19T04:11:22.797Z,3.95
2022-10-19T04:12:24.666Z,6.10
2022-10-19T04:13:27.585Z,10.10
2022-10-19T04:14:32.708Z,4.75
2022-10-19T04:15:36.308Z,4.95
2022-10-19T04:16:38.254Z,4.65
2022-10-19T04:17:40.987Z,6.53
2022-10-19T04:18:42.864Z,4.63
2022-10-19T04:19:45.825Z,4.90
2022-10-19T04:20:47.669Z,5.25
2022-10-19T04:21:52.032Z,5.32
2022-10-19T04:22:53.937Z,3.78
2022-10-19T04:24:00.437Z,4.85
2022-10-19T04:25:02.250Z,5.45
2022-10-19T04:26:07.141Z,5.55
2022-10-19T04:27:09.975Z,5.75
2022-10-19T04:28:11.790Z,5.30
2022-10-19T04:29:15.499Z,6.90
2022-10-19T04:30:17.443Z,4.68
2022-10-19T04:31:20.249Z,4.93
2022-10-19T04:32:23.043Z,5.88
2022-10-19T04:33:24.895Z,5.65
2022-10-19T04:34:28.083Z,5.95
2022-10-19T04:35:30.266Z,8.40
2022-10-19T04:36:33.203Z,6.50
2022-10-19T04:37:36.623Z,5.90
2022-10-19T04:38:40.512Z,4.85
2022-10-19T04:39:43.808Z,6.97
2022-10-19T04:40:46.643Z,6.00
2022-10-19T04:41:48.467Z,6.20
2022-10-19T04:42:51.360Z,7.22
2022-10-19T04:43:56.755Z,6.03
2022-10-19T04:44:59.541Z,5.72
2022-10-19T04:46:05.266Z,4.72
2022-10-19T04:47:08.346Z,5.03
2022-10-19T04:48:10.295Z,4.93
2022-10-19T04:49:16.447Z,4.95
2022-10-19T04:50:21.261Z,4.97
2022-10-19T04:51:31.756Z,6.70
2022-10-19T04:52:35.212Z,5.07
2022-10-19T04:53:40.531Z,5.63
2022-10-19T04:54:43.580Z,5.82
2022-10-19T04:55:46.257Z,5.57
2022-10-19T04:56:50.027Z,6.53
2022-10-19T04:57:51.862Z,5.07
2022-10-19T04:58:57.259Z,5.25
2022-10-19T04:59:59.243Z,5.60
2022-10-19T05:01:08.874Z,4.95
2022-10-19T05:02:11.995Z,4.07
2022-10-19T05:03:13.928Z,4.88
2022-10-19T05:04:16.813Z,5.40
2022-10-19T05:05:18.720Z,5.00
2022-10-19T05:06:21.505Z,5.60
2022-10-19T05:07:23.576Z,5.70
2022-10-19T05:08:26.375Z,5.63
2022-10-19T05:09:30.570Z,5.18
2022-10-19T05:10:32.398Z,4.78
2022-10-19T05:11:35.248Z,5.32
2022-10-19T05:12:37.359Z,5.75
2022-10-19T05:13:40.235Z,5.50
2022-10-19T05:14:43.149Z,7.75
2022-10-19T05:15:55.922Z,7.57
2022-10-19T05:16:59.001Z,5.30
2022-10-19T05:18:00.857Z,5.75
2022-10-19T05:19:03.657Z,5.18
2022-10-19T05:20:06.577Z,6.22
2022-10-19T05:21:11.179Z,7.45
2022-10-19T05:22:13.970Z,7.05
2022-10-19T05:23:15.819Z,8.73
2022-10-19T05:24:18.652Z,5.70
2022-10-19T05:25:22.791Z,8.05
2022-10-19T05:26:27.049Z,6.93
2022-10-19T05:27:30.133Z,6.30
2022-10-19T05:28:32.514Z,6.05
2022-10-19T05:29:35.428Z,6.10
2022-10-19T05:30:38.806Z,6.40
2022-10-19T05:31:42.359Z,6.43
2022-10-19T05:32:44.375Z,6.05
2022-10-19T05:33:47.919Z,6.40
2022-10-19T05:34:49.805Z,6.13
2022-10-19T05:35:52.594Z,6.72
2022-10-19T05:36:57.100Z,6.95
2022-10-19T05:37:59.044Z,7.15
2022-10-19T05:39:04.171Z,7.50
2022-10-19T05:40:07.643Z,8.45
2022-10-19T05:41:12.503Z,6.72
2022-10-19T05:42:15.381Z,7.10
2022-10-19T05:43:17.186Z,7.50
2022-10-19T05:44:22.432Z,7.30
2022-10-19T05:45:24.349Z,7.32
2022-10-19T05:46:28.410Z,7.70
2022-10-19T05:47:31.155Z,7.22
2022-10-19T05:48:34.898Z,6.15
2022-10-19T05:49:37.807Z,7.57
2022-10-19T05:50:39.654Z,7.53
2022-10-19T05:51:42.871Z,8.07
2022-10-19T05:52:44.806Z,9.77
2022-10-19T05:53:47.870Z,8.15
2022-10-19T05:54:50.878Z,8.27
2022-10-19T05:55:52.739Z,7.57
2022-10-19T05:56:57.048Z,6.75
2022-10-19T05:57:58.954Z,7.63
2022-10-19T05:59:04.448Z,7.00
2022-10-19T06:00:07.410Z,7.43
2022-10-19T06:01:15.171Z,8.88
2022-10-19T06:02:17.270Z,10.18
2022-10-19T06:03:20.319Z,7.60
2022-10-19T06:04:23.341Z,7.57
2022-10-19T06:05:25.367Z,7.82
2022-10-19T06:06:29.113Z,8.02
2022-10-19T06:07:31.105Z,6.97
2022-10-19T06:08:35.131Z,6.47
2022-10-19T06:09:38.041Z,7.10
2022-10-19T06:10:39.936Z,7.72
2022-10-19T06:11:44.173Z,7.03
2022-10-19T06:12:47.551Z,11.35
2022-10-19T06:13:51.943Z,7.40
2022-10-19T06:14:54.022Z,7.88
2022-10-19T06:15:56.880Z,6.85
2022-10-19T06:16:59.715Z,7.18
2022-10-19T06:18:01.690Z,7.38
2022-10-19T06:19:06.126Z,6.70
2022-10-19T06:20:08.683Z,7.15
2022-10-19T06:21:13.639Z,8.90
2022-10-19T06:22:15.689Z,6.70
2022-10-19T06:23:18.501Z,8.80
2022-10-19T06:24:21.346Z,7.85
2022-10-19T06:25:23.180Z,7.90
2022-10-19T06:26:26.677Z,7.70
2022-10-19T06:27:30.451Z,8.85
2022-10-19T06:28:33.804Z,8.43
2022-10-19T06:29:36.820Z,8.43
2022-10-19T06:30:40.139Z,8.40
2022-10-19T06:31:43.201Z,9.27
2022-10-19T06:32:45.177Z,8.45
2022-10-19T06:33:49.468Z,7.90
2022-10-19T06:34:55.714Z,7.03
2022-10-19T06:36:07.468Z,7.78
2022-10-19T06:37:10.392Z,7.53
2022-10-19T06:38:13.868Z,7.82
2022-10-19T06:39:16.878Z,8.85
2022-10-19T06:40:18.966Z,9.25
2022-10-19T06:41:21.991Z,8.65
2022-10-19T06:42:23.905Z,7.25
2022-10-19T06:43:27.061Z,8.52
2022-10-19T06:44:31.536Z,10.45
2022-10-19T06:45:35.871Z,6.82
2022-10-19T06:46:39.657Z,11.32
2022-10-19T06:47:42.036Z,13.10
2022-10-19T06:48:45.034Z,7.97
2022-10-19T06:49:46.909Z,6.55
2022-10-19T06:50:57.285Z,8.65
2022-10-19T06:52:00.198Z,7.38
2022-10-19T06:53:02.073Z,7.15
2022-10-19T06:54:05.650Z,7.90
2022-10-19T06:55:08.459Z,7.72
2022-10-19T06:56:11.487Z,8.27
2022-10-19T06:57:13.364Z,7.57
2022-10-19T06:58:16.214Z,8.68
2022-10-19T06:59:19.557Z,10.73
2022-10-19T07:00:22.802Z,9.10
2022-10-19T07:01:26.133Z,10.70
2022-10-19T07:02:28.176Z,8.02
2022-10-19T07:03:31.377Z,9.45
2022-10-19T07:04:34.239Z,9.93
2022-10-19T07:05:36.297Z,9.98
2022-10-19T07:06:39.241Z,11.05
2022-10-19T07:07:41.293Z,8.93
2022-10-19T07:08:45.061Z,13.07
2022-10-19T07:09:48.500Z,9.10
2022-10-19T07:10:52.260Z,8.57
2022-10-19T07:11:54.147Z,8.88
2022-10-19T07:12:57.541Z,10.13
2022-10-19T07:14:00.798Z,11.48
2022-10-19T07:15:04.021Z,8.70
2022-10-19T07:16:15.866Z,10.30
2022-10-19T07:17:22.665Z,10.18
2022-10-19T07:18:24.741Z,8.35
2022-10-19T07:19:28.080Z,8.95
2022-10-19T07:20:29.981Z,10.27
2022-10-19T07:21:33.020Z,9.75
2022-10-19T07:22:34.887Z,10.68
2022-10-19T07:23:40.239Z,9.57
2022-10-19T07:24:42.428Z,8.95
2022-10-19T07:25:45.706Z,8.85
2022-10-19T07:26:48.661Z,8.43
2022-10-19T07:27:50.820Z,9.30
2022-10-19T07:28:54.585Z,7.95
2022-10-19T07:29:56.730Z,8.90
2022-10-19T07:31:00.080Z,7.90
2022-10-19T07:32:04.364Z,10.35
2022-10-19T07:33:06.820Z,9.88
2022-10-19T07:34:13.292Z,7.55
2022-10-19T07:35:16.690Z,8.55
2022-10-19T07:36:19.539Z,10.80
2022-10-19T07:37:21.450Z,8.15
2022-10-19T07:38:24.248Z,10.20
2022-10-19T07:39:27.452Z,25.73
2022-10-19T07:40:29.338Z,13.35
2022-10-19T07:41:32.399Z,14.10
2022-10-19T07:42:37.591Z,10.48
2022-10-19T07:43:41.585Z,10.68
2022-10-19T07:44:44.439Z,10.57
2022-10-19T07:45:46.470Z,15.18
2022-10-19T07:46:49.365Z,12.52
2022-10-19T07:47:52.820Z,10.15
2022-10-19T07:48:56.247Z,15.23
2022-10-19T07:49:59.348Z,9.38
2022-10-19T07:51:02.656Z,8.30
2022-10-19T07:52:05.833Z,10.32
2022-10-19T07:53:07.756Z,11.15
2022-10-19T07:54:10.817Z,13.55
2022-10-19T07:55:13.027Z,13.05
2022-10-19T07:56:17.539Z,11.90
2022-10-19T07:57:22.335Z,12.50
2022-10-19T07:58:25.422Z,12.82
2022-10-19T07:59:28.504Z,11.13
2022-10-19T08:00:30.685Z,12.68
2022-10-19T08:01:37.062Z,16.05
2022-10-19T08:02:54.780Z,10.05
2022-10-19T08:05:27.076Z,11.13
2022-10-19T08:06:30.168Z,13.00
2022-10-19T08:07:33.239Z,12.57
2022-10-19T08:08:37.507Z,12.20
2022-10-19T08:09:52.732Z,15.85
2022-10-19T08:10:57.293Z,14.45
2022-10-19T08:12:00.820Z,15.38
2022-10-19T08:13:03.834Z,17.90
2022-10-19T08:14:07.282Z,14.57
2022-10-19T08:15:10.054Z,17.98
2022-10-19T08:16:23.745Z,14.38
2022-10-19T08:17:26.869Z,14.98
2022-10-19T08:18:30.307Z,14.68
2022-10-19T08:19:35.017Z,16.13
2022-10-19T08:20:37.253Z,17.70
2022-10-19T08:21:41.945Z,17.13
2022-10-19T08:22:45.608Z,14.63
2022-10-19T08:23:47.622Z,13.15
2022-10-19T08:24:50.928Z,15.30
2022-10-19T08:25:59.790Z,17.20
2022-10-19T08:27:03.774Z,15.02
2022-10-19T08:28:07.029Z,14.20
2022-10-19T08:29:13.407Z,13.98
2022-10-19T08:30:24.007Z,13.25
2022-10-19T08:31:28.466Z,14.52
2022-10-19T08:32:30.930Z,14.32
2022-10-19T08:33:34.499Z,13.80
2022-10-19T08:34:38.730Z,12.95
2022-10-19T08:35:42.036Z,16.13
2022-10-19T08:36:44.897Z,14.93
2022-10-19T08:37:49.078Z,14.07
2022-10-19T08:38:51.777Z,15.18
2022-10-19T08:39:55.837Z,13.13
2022-10-19T08:40:58.690Z,15.85
2022-10-19T08:42:05.945Z,11.27
2022-10-19T08:43:14.823Z,13.07
2022-10-19T08:44:48.868Z,15.00
2022-10-19T08:45:58.044Z,13.35
2022-10-19T08:47:09.322Z,14.55
2022-10-19T08:48:26.251Z,14.43
2022-10-19T08:49:31.555Z,14.95
2022-10-19T08:50:40.005Z,15.07
2022-10-19T08:51:44.748Z,15.38
2022-10-19T08:52:51.876Z,14.52
2022-10-19T08:53:58.790Z,13.70
2022-10-19T08:55:02.939Z,16.40
2022-10-19T08:56:32.527Z,14.05
2022-10-19T08:57:47.768Z,15.02
2022-10-19T08:59:02.644Z,13.68
2022-10-19T09:00:14.037Z,12.63
2022-10-19T09:01:29.436Z,15.10
2022-10-19T09:02:50.465Z,13.00
2022-10-19T09:03:58.954Z,14.68
2022-10-19T09:05:07.127Z,14.48
2022-10-19T09:06:23.255Z,13.98
2022-10-19T09:07:30.383Z,13.43
2022-10-19T09:08:35.207Z,12.68
2022-10-19T09:09:44.096Z,16.65
2022-10-19T09:10:50.384Z,13.02
2022-10-19T09:11:59.611Z,14.65
2022-10-19T09:13:06.587Z,16.75
2022-10-19T09:14:15.393Z,14.45
2022-10-19T09:15:23.303Z,16.48
2022-10-19T09:16:27.208Z,13.95
2022-10-19T09:17:32.611Z,13.75
2022-10-19T09:18:35.676Z,10.98
2022-10-19T09:19:38.863Z,12.20
2022-10-19T09:20:45.908Z,16.58
2022-10-19T09:21:54.464Z,14.18
2022-10-19T09:23:07.674Z,13.60
2022-10-19T09:24:29.177Z,17.27
2022-10-19T09:25:37.061Z,15.00
2022-10-19T09:26:50.652Z,12.60
2022-10-19T09:28:04.474Z,16.08
2022-10-19T09:29:22.959Z,18.33
2022-10-19T09:30:31.665Z,14.82
2022-10-19T09:31:40.656Z,11.73
2022-10-19T09:32:44.876Z,16.60
2022-10-19T09:33:55.830Z,18.00
2022-10-19T09:35:03.119Z,14.90
2022-10-19T09:36:22.328Z,14.57
2022-10-19T09:37:39.594Z,14.70
2022-10-19T09:38:41.979Z,17.33
2022-10-19T09:39:52.359Z,13.38
2022-10-19T09:40:59.060Z,19.35
2022-10-19T09:42:09.798Z,17.00
2022-10-19T09:43:20.680Z,12.82
2022-10-19T09:44:24.266Z,15.15
2022-10-19T09:45:45.509Z,17.80
2022-10-19T09:46:53.444Z,12.60
2022-10-19T09:47:58.271Z,15.30
2022-10-19T09:49:06.096Z,15.27
2022-10-19T09:50:22.292Z,17.73
2022-10-19T09:51:24.443Z,13.90
2022-10-19T09:52:36.308Z,14.77
2022-10-19T09:53:44.898Z,16.13
2022-10-19T09:54:52.203Z,12.32
2022-10-19T09:56:00.611Z,15.18
2022-10-19T09:57:04.308Z,12.40
2022-10-19T09:58:18.449Z,19.92
2022-10-19T09:59:23.676Z,13.90
2022-10-19T10:00:34.008Z,15.75
2022-10-19T10:01:43.168Z,11.80
2022-10-19T10:02:51.368Z,13.00
2022-10-19T10:04:05.743Z,11.52
2022-10-19T10:05:16.224Z,12.90
2022-10-19T10:06:22.294Z,14.40
2022-10-19T10:07:33.200Z,12.98
2022-10-19T10:08:40.979Z,12.52
2022-10-19T10:09:45.059Z,11.23
2022-10-19T10:11:07.067Z,13.05
2022-10-19T10:12:16.474Z,11.30
2022-10-19T10:13:22.924Z,11.88
2022-10-19T10:14:30.708Z,10.60
2022-10-19T10:15:43.879Z,12.93
2022-10-19T10:16:52.399Z,10.85
2022-10-19T10:17:57.128Z,11.75
2022-10-19T10:19:02.199Z,12.68
2022-10-19T10:20:23.614Z,11.32
2022-10-19T10:21:28.805Z,10.57
2022-10-19T10:22:34.254Z,11.55
2022-10-19T10:23:38.738Z,11.05
2022-10-19T10:24:52.600Z,9.75
2022-10-19T10:25:57.246Z,11.30
2022-10-19T10:27:02.035Z,12.38
2022-10-19T10:28:18.714Z,12.75
2022-10-19T10:29:23.632Z,11.15
2022-10-19T10:30:29.126Z,11.48
2022-10-19T10:31:32.187Z,11.40
2022-10-19T10:32:37.815Z,10.90
2022-10-19T10:33:45.778Z,11.35
2022-10-19T10:34:59.912Z,10.05
2022-10-19T10:36:10.366Z,13.68
2022-10-19T10:37:20.509Z,13.20
2022-10-19T10:38:25.523Z,10.85
2022-10-19T10:39:31.314Z,13.35
2022-10-19T10:40:34.581Z,11.85
2022-10-19T10:41:40.515Z,16.42
2022-10-19T10:42:45.482Z,14.02
2022-10-19T10:44:00.784Z,13.45
2022-10-19T10:45:18.288Z,9.75
2022-10-19T10:46:25.573Z,11.52
2022-10-19T10:47:29.697Z,11.48
2022-10-19T10:48:37.535Z,11.15
2022-10-19T10:49:42.849Z,13.43
2022-10-19T10:50:45.585Z,11.52
2022-10-19T10:51:53.087Z,12.90
2022-10-19T10:52:58.247Z,12.30
2022-10-19T10:54:19.322Z,15.05
2022-10-19T10:55:22.965Z,12.73
2022-10-19T10:56:28.739Z,13.18
2022-10-19T10:57:35.831Z,13.20
2022-10-19T10:58:47.701Z,14.25
2022-10-19T10:59:57.410Z,12.93
2022-10-19T11:01:07.667Z,11.80
2022-10-19T11:02:21.560Z,10.38
2022-10-19T11:03:28.926Z,9.75
2022-10-19T11:04:37.550Z,10.32
2022-10-19T11:05:44.939Z,10.18
2022-10-19T11:06:55.134Z,8.02
2022-10-19T11:08:08.463Z,8.98
2022-10-19T11:09:17.747Z,7.68
2022-10-19T11:10:28.107Z,11.82
2022-10-19T11:11:37.576Z,7.60
2022-10-19T11:12:43.637Z,8.15
2022-10-19T11:13:52.713Z,9.30
2022-10-19T11:15:01.856Z,9.85
2022-10-19T11:16:13.458Z,10.65
2022-10-19T11:17:21.506Z,7.10
2022-10-19T11:18:29.256Z,8.10
2022-10-19T11:19:35.449Z,6.60
2022-10-19T11:20:48.005Z,7.70
2022-10-19T11:21:56.794Z,8.10
2022-10-19T11:23:09.695Z,7.25
2022-10-19T11:24:19.201Z,8.27
2022-10-19T11:25:33.894Z,9.50
2022-10-19T11:26:47.865Z,7.03
2022-10-19T11:28:01.550Z,6.60
2022-10-19T11:29:18.359Z,7.18
2022-10-19T11:30:23.243Z,5.57
2022-10-19T11:31:36.971Z,6.75
2022-10-19T11:32:47.887Z,5.93
2022-10-19T11:34:00.909Z,6.55
2022-10-19T11:35:20.711Z,8.13
2022-10-19T11:36:37.139Z,5.30
2022-10-19T11:38:17.421Z,6.15
2022-10-19T11:39:29.341Z,6.95
2022-10-19T11:40:45.807Z,6.05
2022-10-19T11:42:07.642Z,6.28
2022-10-19T11:43:16.077Z,5.43
2022-10-19T11:44:30.352Z,6.32
2022-10-19T11:45:48.580Z,6.60
2022-10-19T11:47:08.133Z,5.93
2022-10-19T11:48:43.839Z,6.32
2022-10-19T11:49:58.346Z,6.35
2022-10-19T11:51:20.802Z,5.57
2022-10-19T11:52:33.986Z,5.25
2022-10-19T11:53:51.698Z,6.13
2022-10-19T11:55:07.635Z,5.82
2022-10-19T11:56:15.095Z,5.60
2022-10-19T11:57:23.141Z,5.70
2022-10-19T11:58:37.718Z,5.53
2022-10-19T12:00:14.602Z,5.93
2022-10-19T12:01:40.934Z,4.85
2022-10-19T12:03:15.870Z,6.22
2022-10-19T12:04:40.741Z,5.18
2022-10-19T12:05:57.337Z,4.30
2022-10-19T12:07:09.942Z,4.82
2022-10-19T12:08:26.620Z,6.05
2022-10-19T12:09:41.835Z,5.43
2022-10-19T12:10:53.073Z,5.35
2022-10-19T12:12:09.807Z,5.75
2022-10-19T12:13:16.599Z,5.00
2022-10-19T12:14:25.100Z,5.20
2022-10-19T12:15:32.380Z,4.45
2022-10-19T12:16:40.338Z,4.53
2022-10-19T12:17:47.683Z,4.55
2022-10-19T12:18:54.808Z,5.22
2022-10-19T12:20:01.795Z,4.78
2022-10-19T12:21:11.757Z,5.68
2022-10-19T12:22:17.906Z,4.95
2022-10-19T12:23:29.148Z,5.20
2022-10-19T12:24:34.013Z,4.85
2022-10-19T12:25:41.489Z,4.63
2022-10-19T12:26:46.230Z,4.75
2022-10-19T12:27:51.565Z,4.85
2022-10-19T12:28:58.976Z,5.13
2022-10-19T12:30:07.233Z,5.43
2022-10-19T12:31:11.780Z,5.38
2022-10-19T12:32:16.897Z,8.10
2022-10-19T12:33:26.793Z,6.78
2022-10-19T12:34:37.027Z,5.75
2022-10-19T12:36:00.824Z,6.10
2022-10-19T12:37:09.654Z,5.63
2022-10-19T12:38:20.057Z,5.88
2022-10-19T12:39:32.179Z,6.70
2022-10-19T12:40:41.555Z,6.30
2022-10-19T12:41:52.507Z,5.60
2022-10-19T12:43:04.607Z,7.30
2022-10-19T12:44:25.994Z,6.95
2022-10-19T12:45:33.632Z,5.50
2022-10-19T12:46:41.166Z,5.75
2022-10-19T12:48:22.152Z,4.65
2022-10-19T12:49:45.559Z,5.00
2022-10-19T12:51:03.422Z,5.00
2022-10-19T12:52:08.453Z,5.95
2022-10-19T12:53:23.809Z,4.78
2022-10-19T12:54:29.117Z,4.80
2022-10-19T12:55:34.939Z,4.80
2022-10-19T12:56:49.887Z,5.53
2022-10-19T12:58:02.022Z,6.60
2022-10-19T12:59:05.110Z,4.57
2022-10-19T13:00:20.722Z,5.50
2022-10-19T13:01:27.829Z,5.15
2022-10-19T13:02:34.152Z,4.70
2022-10-19T13:03:40.515Z,4.72
2022-10-19T13:04:54.387Z,5.47
2022-10-19T13:05:58.726Z,4.95
2022-10-19T13:07:03.960Z,4.85
2022-10-19T13:08:10.691Z,5.35
2022-10-19T13:09:25.524Z,5.40
2022-10-19T13:10:29.235Z,4.63
2022-10-19T13:11:36.555Z,5.30
2022-10-19T13:12:47.134Z,4.82
2022-10-19T13:14:03.226Z,5.50
2022-10-19T13:15:05.820Z,5.28
2022-10-19T13:16:47.440Z,4.65
2022-10-19T13:17:51.942Z,4.85
2022-10-19T13:19:19.473Z,4.07
2022-10-19T13:20:49.512Z,4.90
2022-10-19T13:22:24.007Z,5.07
2022-10-19T13:23:38.908Z,5.40
2022-10-19T13:24:42.006Z,4.95
2022-10-19T13:25:45.293Z,6.13
2022-10-19T13:26:47.285Z,4.95
2022-10-19T13:27:51.059Z,5.00
2022-10-19T13:28:54.990Z,4.90
2022-10-19T13:29:58.351Z,5.18
2022-10-19T13:31:08.137Z,5.20
2022-10-19T13:32:47.082Z,5.68
2022-10-19T13:33:50.875Z,5.30
2022-10-19T13:34:54.528Z,5.28
2022-10-19T13:36:07.787Z,4.43
2022-10-19T13:37:14.186Z,6.68
2022-10-19T13:38:27.621Z,5.57
2022-10-19T13:39:31.314Z,8.18
2022-10-19T13:40:34.215Z,6.53
2022-10-19T13:41:50.369Z,6.72
2022-10-19T13:42:58.619Z,5.88
2022-10-19T13:44:17.036Z,4.07
2022-10-19T13:45:25.526Z,4.97
2022-10-19T13:46:46.784Z,5.32
2022-10-19T13:47:54.118Z,4.47
2022-10-19T13:49:11.981Z,5.35
2022-10-19T13:50:33.303Z,5.10
2022-10-19T13:51:46.538Z,6.60
2022-10-19T13:53:11.949Z,5.13
2022-10-19T13:54:29.380Z,6.38
2022-10-19T13:56:00.769Z,4.60
2022-10-19T13:57:19.294Z,5.00
2022-10-19T13:58:41.781Z,5.10
2022-10-19T14:00:07.082Z,4.30
2022-10-19T14:01:30.399Z,4.50
2022-10-19T14:02:54.544Z,4.28
2022-10-19T14:04:18.791Z,7.03
2022-10-19T14:05:42.693Z,4.32
2022-10-19T14:06:48.838Z,3.95
2022-10-19T14:08:04.914Z,3.90
2022-10-19T14:09:41.598Z,4.15
2022-10-19T14:11:01.010Z,7.20
2022-10-19T14:12:09.091Z,5.03
2022-10-19T14:13:15.550Z,5.15
2022-10-19T14:14:19.824Z,6.45
2022-10-19T14:15:28.359Z,4.95
2022-10-19T14:16:31.583Z,4.72
2022-10-19T14:17:43.506Z,4.72
2022-10-19T14:18:54.677Z,4.88
2022-10-19T14:19:59.890Z,4.45
2022-10-19T14:21:04.365Z,4.70
2022-10-19T14:22:20.750Z,5.25
2022-10-19T14:23:25.304Z,4.40
2022-10-19T14:24:31.380Z,5.55
2022-10-19T14:25:34.529Z,6.43
2022-10-19T14:26:36.566Z,6.15
2022-10-19T14:27:39.536Z,4.85
2022-10-19T14:28:43.100Z,5.43
2022-10-19T14:29:48.671Z,6.10
2022-10-19T14:31:01.076Z,5.20
2022-10-19T14:32:05.070Z,5.38
2022-10-19T14:33:10.066Z,6.03
2022-10-19T14:34:14.397Z,5.57
2022-10-19T14:35:23.339Z,7.57
2022-10-19T14:36:31.799Z,6.07
2022-10-19T14:37:36.046Z,6.70
2022-10-19T14:38:43.653Z,5.85
2022-10-19T14:39:59.488Z,5.97
2022-10-19T14:41:03.004Z,5.68
2022-10-19T14:42:06.535Z,5.63
2022-10-19T14:43:21.282Z,6.50
2022-10-19T14:44:37.303Z,8.05
2022-10-19T14:45:40.252Z,6.60
2022-10-19T14:46:48.180Z,5.85
2022-10-19T14:48:01.112Z,4.95